International Virtual Aviation Organisation

Eastern Europe and Northern Asia MCD

 
UATT 200930Z 09010MPS CAVOK 07/M11 Q1029 R12/70D NOSIG RMK QFE752/1002
QNH:(hPa/inHg/mmHg)1029 / 30.39 / 772
QFE:(hPa/inHg/mmHg)1002 / 29.58 / 751
Temperature7
Dew Point-11
Visibility> 10000
WeatherCAVOK
Cloud Cover
Transition Height2710 m./9700 ft.
Transition LevelFL110
SQUAWK